sensor_id;sensor_type;location;lat;lon;timestamp;P1;durP1;ratioP1;P2;durP2;ratioP2
7116;SDS011;3600;48.568;7.870;2022-07-04T00:00:13;1.75;;;1.20;;
7116;SDS011;3600;48.568;7.870;2022-07-04T00:02:41;2.47;;;1.25;;
7116;SDS011;3600;48.568;7.870;2022-07-04T00:05:09;1.33;;;1.23;;
7116;SDS011;3600;48.568;7.870;2022-07-04T00:07:37;5.10;;;1.00;;
7116;SDS011;3600;48.568;7.870;2022-07-04T00:10:09;1.23;;;1.13;;
7116;SDS011;3600;48.568;7.870;2022-07-04T00:12:37;1.20;;;1.10;;
7116;SDS011;3600;48.568;7.870;2022-07-04T00:15:05;1.58;;;1.48;;
7116;SDS011;3600;48.568;7.870;2022-07-04T00:17:32;1.45;;;1.10;;
7116;SDS011;3600;48.568;7.870;2022-07-04T00:19:59;1.63;;;1.20;;
7116;SDS011;3600;48.568;7.870;2022-07-04T00:22:26;1.25;;;1.00;;
7116;SDS011;3600;48.568;7.870;2022-07-04T00:24:53;2.80;;;1.30;;
7116;SDS011;3600;48.568;7.870;2022-07-04T00:27:20;2.30;;;1.20;;
7116;SDS011;3600;48.568;7.870;2022-07-04T00:29:46;1.67;;;1.00;;
7116;SDS011;3600;48.568;7.870;2022-07-04T00:32:13;1.10;;;0.80;;
7116;SDS011;3600;48.568;7.870;2022-07-04T00:34:40;1.35;;;0.82;;
7116;SDS011;3600;48.568;7.870;2022-07-04T00:37:06;2.25;;;1.40;;
7116;SDS011;3600;48.568;7.870;2022-07-04T00:39:33;2.58;;;1.13;;
7116;SDS011;3600;48.568;7.870;2022-07-04T00:42:06;2.28;;;1.45;;
7116;SDS011;3600;48.568;7.870;2022-07-04T00:44:33;1.45;;;1.20;;
7116;SDS011;3600;48.568;7.870;2022-07-04T00:47:03;3.30;;;1.48;;
7116;SDS011;3600;48.568;7.870;2022-07-04T00:49:31;4.28;;;1.20;;
7116;SDS011;3600;48.568;7.870;2022-07-04T00:51:58;2.13;;;1.40;;
7116;SDS011;3600;48.568;7.870;2022-07-04T00:54:28;1.45;;;1.10;;
7116;SDS011;3600;48.568;7.870;2022-07-04T00:56:56;1.42;;;1.02;;
7116;SDS011;3600;48.568;7.870;2022-07-04T00:59:24;1.90;;;1.10;;
7116;SDS011;3600;48.568;7.870;2022-07-04T01:01:51;1.55;;;1.15;;
7116;SDS011;3600;48.568;7.870;2022-07-04T01:04:18;2.38;;;1.00;;
7116;SDS011;3600;48.568;7.870;2022-07-04T01:06:45;10.35;;;1.13;;
7116;SDS011;3600;48.568;7.870;2022-07-04T01:09:12;1.38;;;1.23;;
7116;SDS011;3600;48.568;7.870;2022-07-04T01:11:39;2.22;;;1.30;;
7116;SDS011;3600;48.568;7.870;2022-07-04T01:14:06;1.52;;;1.10;;
7116;SDS011;3600;48.568;7.870;2022-07-04T01:16:33;2.80;;;1.20;;
7116;SDS011;3600;48.568;7.870;2022-07-04T01:19:01;2.97;;;1.35;;
7116;SDS011;3600;48.568;7.870;2022-07-04T01:21:28;1.23;;;1.05;;
7116;SDS011;3600;48.568;7.870;2022-07-04T01:23:56;1.35;;;1.25;;
7116;SDS011;3600;48.568;7.870;2022-07-04T01:26:23;1.10;;;1.00;;
7116;SDS011;3600;48.568;7.870;2022-07-04T01:28:50;1.10;;;1.00;;
7116;SDS011;3600;48.568;7.870;2022-07-04T01:31:17;1.10;;;1.00;;
7116;SDS011;3600;48.568;7.870;2022-07-04T01:33:44;2.38;;;1.05;;
7116;SDS011;3600;48.568;7.870;2022-07-04T01:36:11;4.32;;;1.08;;
7116;SDS011;3600;48.568;7.870;2022-07-04T01:38:37;2.33;;;1.27;;
7116;SDS011;3600;48.568;7.870;2022-07-04T01:41:04;2.33;;;1.13;;
7116;SDS011;3600;48.568;7.870;2022-07-04T01:43:31;3.47;;;1.27;;
7116;SDS011;3600;48.568;7.870;2022-07-04T01:45:58;1.70;;;1.25;;
7116;SDS011;3600;48.568;7.870;2022-07-04T01:48:24;1.13;;;1.02;;
7116;SDS011;3600;48.568;7.870;2022-07-04T01:50:51;3.80;;;1.23;;
7116;SDS011;3600;48.568;7.870;2022-07-04T01:53:18;1.00;;;0.90;;
7116;SDS011;3600;48.568;7.870;2022-07-04T01:55:45;1.40;;;1.30;;
7116;SDS011;3600;48.568;7.870;2022-07-04T01:58:11;1.40;;;0.93;;
7116;SDS011;3600;48.568;7.870;2022-07-04T02:00:38;1.20;;;1.05;;
7116;SDS011;3600;48.568;7.870;2022-07-04T02:03:24;2.05;;;0.90;;
7116;SDS011;3600;48.568;7.870;2022-07-04T02:05:50;1.20;;;1.10;;
7116;SDS011;3600;48.568;7.870;2022-07-04T02:08:17;1.33;;;0.80;;
7116;SDS011;3600;48.568;7.870;2022-07-04T02:10:44;2.25;;;1.25;;
7116;SDS011;3600;48.568;7.870;2022-07-04T02:13:11;2.58;;;1.30;;
7116;SDS011;3600;48.568;7.870;2022-07-04T02:15:40;1.48;;;1.27;;
7116;SDS011;3600;48.568;7.870;2022-07-04T02:18:09;1.08;;;0.85;;
7116;SDS011;3600;48.568;7.870;2022-07-04T02:20:36;1.95;;;1.10;;
7116;SDS011;3600;48.568;7.870;2022-07-04T02:23:04;2.60;;;1.13;;
7116;SDS011;3600;48.568;7.870;2022-07-04T02:25:32;2.25;;;1.02;;
7116;SDS011;3600;48.568;7.870;2022-07-04T02:27:59;2.95;;;1.27;;
7116;SDS011;3600;48.568;7.870;2022-07-04T02:30:26;2.60;;;1.20;;
7116;SDS011;3600;48.568;7.870;2022-07-04T02:32:53;1.23;;;1.08;;
7116;SDS011;3600;48.568;7.870;2022-07-04T02:35:20;1.20;;;1.10;;
7116;SDS011;3600;48.568;7.870;2022-07-04T02:37:47;1.35;;;1.10;;
7116;SDS011;3600;48.568;7.870;2022-07-04T02:40:13;1.48;;;1.33;;
7116;SDS011;3600;48.568;7.870;2022-07-04T02:42:40;1.20;;;1.10;;
7116;SDS011;3600;48.568;7.870;2022-07-04T02:45:07;2.97;;;1.50;;
7116;SDS011;3600;48.568;7.870;2022-07-04T02:47:34;1.60;;;1.15;;
7116;SDS011;3600;48.568;7.870;2022-07-04T02:50:01;2.35;;;1.00;;
7116;SDS011;3600;48.568;7.870;2022-07-04T02:52:29;1.33;;;1.20;;
7116;SDS011;3600;48.568;7.870;2022-07-04T02:54:56;2.33;;;1.23;;
7116;SDS011;3600;48.568;7.870;2022-07-04T02:57:23;1.50;;;1.35;;
7116;SDS011;3600;48.568;7.870;2022-07-04T02:59:50;1.13;;;1.08;;
7116;SDS011;3600;48.568;7.870;2022-07-04T03:02:17;1.33;;;1.20;;
7116;SDS011;3600;48.568;7.870;2022-07-04T03:04:44;0.85;;;0.85;;
7116;SDS011;3600;48.568;7.870;2022-07-04T03:07:11;1.83;;;1.17;;
7116;SDS011;3600;48.568;7.870;2022-07-04T03:09:38;2.80;;;1.35;;
7116;SDS011;3600;48.568;7.870;2022-07-04T03:12:05;1.10;;;1.10;;
7116;SDS011;3600;48.568;7.870;2022-07-04T03:14:32;1.67;;;1.38;;
7116;SDS011;3600;48.568;7.870;2022-07-04T03:16:59;2.55;;;1.30;;
7116;SDS011;3600;48.568;7.870;2022-07-04T03:19:26;2.92;;;1.40;;
7116;SDS011;3600;48.568;7.870;2022-07-04T03:21:54;2.08;;;1.30;;
7116;SDS011;3600;48.568;7.870;2022-07-04T03:24:21;1.30;;;1.23;;
7116;SDS011;3600;48.568;7.870;2022-07-04T03:26:48;1.35;;;1.20;;
7116;SDS011;3600;48.568;7.870;2022-07-04T03:29:14;2.20;;;1.23;;
7116;SDS011;3600;48.568;7.870;2022-07-04T03:31:41;2.67;;;1.38;;
7116;SDS011;3600;48.568;7.870;2022-07-04T03:34:08;2.45;;;1.25;;
7116;SDS011;3600;48.568;7.870;2022-07-04T03:36:35;1.30;;;1.20;;
7116;SDS011;3600;48.568;7.870;2022-07-04T03:39:02;4.28;;;1.95;;
7116;SDS011;3600;48.568;7.870;2022-07-04T03:41:28;1.33;;;1.23;;
7116;SDS011;3600;48.568;7.870;2022-07-04T03:43:55;5.28;;;1.75;;
7116;SDS011;3600;48.568;7.870;2022-07-04T03:46:22;2.60;;;1.13;;
7116;SDS011;3600;48.568;7.870;2022-07-04T03:48:49;1.40;;;1.30;;
7116;SDS011;3600;48.568;7.870;2022-07-04T03:51:16;2.33;;;1.58;;
7116;SDS011;3600;48.568;7.870;2022-07-04T03:53:43;4.93;;;1.42;;
7116;SDS011;3600;48.568;7.870;2022-07-04T03:56:10;1.55;;;1.45;;
7116;SDS011;3600;48.568;7.870;2022-07-04T03:58:36;1.40;;;1.30;;
7116;SDS011;3600;48.568;7.870;2022-07-04T04:01:03;1.50;;;1.40;;
7116;SDS011;3600;48.568;7.870;2022-07-04T04:03:30;1.48;;;1.38;;
7116;SDS011;3600;48.568;7.870;2022-07-04T04:06:16;4.28;;;1.65;;
7116;SDS011;3600;48.568;7.870;2022-07-04T04:08:42;1.40;;;1.25;;
7116;SDS011;3600;48.568;7.870;2022-07-04T04:11:09;1.75;;;1.60;;
7116;SDS011;3600;48.568;7.870;2022-07-04T04:13:36;2.50;;;1.60;;
7116;SDS011;3600;48.568;7.870;2022-07-04T04:16:03;1.92;;;1.40;;
7116;SDS011;3600;48.568;7.870;2022-07-04T04:18:30;1.98;;;1.80;;
7116;SDS011;3600;48.568;7.870;2022-07-04T04:20:57;2.03;;;1.60;;
7116;SDS011;3600;48.568;7.870;2022-07-04T04:23:24;2.22;;;1.52;;
7116;SDS011;3600;48.568;7.870;2022-07-04T04:25:51;2.60;;;1.25;;
7116;SDS011;3600;48.568;7.870;2022-07-04T04:28:21;1.55;;;1.45;;
7116;SDS011;3600;48.568;7.870;2022-07-04T04:30:49;2.10;;;1.58;;
7116;SDS011;3600;48.568;7.870;2022-07-04T04:33:16;1.58;;;1.40;;
7116;SDS011;3600;48.568;7.870;2022-07-04T04:35:43;1.95;;;1.55;;
7116;SDS011;3600;48.568;7.870;2022-07-04T04:38:10;3.00;;;1.63;;
7116;SDS011;3600;48.568;7.870;2022-07-04T04:40:37;2.75;;;1.85;;
7116;SDS011;3600;48.568;7.870;2022-07-04T04:43:03;3.55;;;1.60;;
7116;SDS011;3600;48.568;7.870;2022-07-04T04:45:30;1.77;;;1.60;;
7116;SDS011;3600;48.568;7.870;2022-07-04T04:47:57;1.20;;;1.20;;
7116;SDS011;3600;48.568;7.870;2022-07-04T04:50:24;3.08;;;1.75;;
7116;SDS011;3600;48.568;7.870;2022-07-04T04:52:50;1.83;;;1.70;;
7116;SDS011;3600;48.568;7.870;2022-07-04T04:55:17;2.03;;;1.83;;
7116;SDS011;3600;48.568;7.870;2022-07-04T04:57:44;1.85;;;1.75;;
7116;SDS011;3600;48.568;7.870;2022-07-04T05:00:11;2.00;;;1.80;;
7116;SDS011;3600;48.568;7.870;2022-07-04T05:02:38;2.50;;;1.58;;
7116;SDS011;3600;48.568;7.870;2022-07-04T05:05:05;2.83;;;1.48;;
7116;SDS011;3600;48.568;7.870;2022-07-04T05:07:32;1.40;;;1.20;;
7116;SDS011;3600;48.568;7.870;2022-07-04T05:10:01;2.33;;;1.65;;
7116;SDS011;3600;48.568;7.870;2022-07-04T05:12:29;1.58;;;1.23;;
7116;SDS011;3600;48.568;7.870;2022-07-04T05:14:56;1.67;;;1.58;;
7116;SDS011;3600;48.568;7.870;2022-07-04T05:17:22;2.05;;;1.60;;
7116;SDS011;3600;48.568;7.870;2022-07-04T05:19:49;1.30;;;1.20;;
7116;SDS011;3600;48.568;7.870;2022-07-04T05:22:16;1.67;;;1.58;;
7116;SDS011;3600;48.568;7.870;2022-07-04T05:24:44;2.90;;;1.55;;
7116;SDS011;3600;48.568;7.870;2022-07-04T05:27:11;1.58;;;1.48;;
7116;SDS011;3600;48.568;7.870;2022-07-04T05:29:38;3.55;;;1.63;;
7116;SDS011;3600;48.568;7.870;2022-07-04T05:32:05;3.78;;;1.65;;
7116;SDS011;3600;48.568;7.870;2022-07-04T05:34:32;2.30;;;1.80;;
7116;SDS011;3600;48.568;7.870;2022-07-04T05:37:00;5.20;;;1.50;;
7116;SDS011;3600;48.568;7.870;2022-07-04T05:39:27;1.60;;;1.50;;
7116;SDS011;3600;48.568;7.870;2022-07-04T05:41:54;1.70;;;1.60;;
7116;SDS011;3600;48.568;7.870;2022-07-04T05:44:21;2.28;;;1.55;;
7116;SDS011;3600;48.568;7.870;2022-07-04T05:46:48;2.45;;;1.60;;
7116;SDS011;3600;48.568;7.870;2022-07-04T05:49:14;2.88;;;1.58;;
7116;SDS011;3600;48.568;7.870;2022-07-04T05:51:41;1.70;;;1.60;;
7116;SDS011;3600;48.568;7.870;2022-07-04T05:54:09;2.25;;;1.90;;
7116;SDS011;3600;48.568;7.870;2022-07-04T05:56:35;3.38;;;1.50;;
7116;SDS011;3600;48.568;7.870;2022-07-04T05:59:03;2.00;;;1.50;;
7116;SDS011;3600;48.568;7.870;2022-07-04T06:01:30;3.50;;;1.85;;
7116;SDS011;3600;48.568;7.870;2022-07-04T06:04:00;1.98;;;1.85;;
7116;SDS011;3600;48.568;7.870;2022-07-04T06:06:26;2.90;;;1.60;;
7116;SDS011;3600;48.568;7.870;2022-07-04T06:08:54;2.25;;;2.05;;
7116;SDS011;3600;48.568;7.870;2022-07-04T06:11:21;2.17;;;1.80;;
7116;SDS011;3600;48.568;7.870;2022-07-04T06:13:48;3.40;;;1.98;;
7116;SDS011;3600;48.568;7.870;2022-07-04T06:16:15;2.05;;;1.70;;
7116;SDS011;3600;48.568;7.870;2022-07-04T06:18:43;2.00;;;1.42;;
7116;SDS011;3600;48.568;7.870;2022-07-04T06:21:10;2.70;;;1.70;;
7116;SDS011;3600;48.568;7.870;2022-07-04T06:23:37;2.08;;;1.73;;
7116;SDS011;3600;48.568;7.870;2022-07-04T06:26:04;2.53;;;1.50;;
7116;SDS011;3600;48.568;7.870;2022-07-04T06:28:31;1.77;;;1.67;;
7116;SDS011;3600;48.568;7.870;2022-07-04T06:31:13;2.20;;;1.50;;
7116;SDS011;3600;48.568;7.870;2022-07-04T06:33:41;2.00;;;1.67;;
7116;SDS011;3600;48.568;7.870;2022-07-04T06:36:26;2.17;;;1.90;;
7116;SDS011;3600;48.568;7.870;2022-07-04T06:38:53;2.20;;;1.98;;
7116;SDS011;3600;48.568;7.870;2022-07-04T06:41:20;3.40;;;1.67;;
7116;SDS011;3600;48.568;7.870;2022-07-04T06:43:47;1.63;;;1.52;;
7116;SDS011;3600;48.568;7.870;2022-07-04T06:46:13;2.92;;;2.03;;
7116;SDS011;3600;48.568;7.870;2022-07-04T06:48:41;4.80;;;1.88;;
7116;SDS011;3600;48.568;7.870;2022-07-04T06:51:09;6.05;;;1.98;;
7116;SDS011;3600;48.568;7.870;2022-07-04T06:53:36;2.92;;;1.70;;
7116;SDS011;3600;48.568;7.870;2022-07-04T06:56:02;4.25;;;1.80;;
7116;SDS011;3600;48.568;7.870;2022-07-04T06:58:29;2.35;;;1.50;;
7116;SDS011;3600;48.568;7.870;2022-07-04T07:00:56;2.53;;;1.85;;
7116;SDS011;3600;48.568;7.870;2022-07-04T07:03:23;2.00;;;1.75;;
7116;SDS011;3600;48.568;7.870;2022-07-04T07:05:50;1.88;;;1.45;;
7116;SDS011;3600;48.568;7.870;2022-07-04T07:08:26;2.40;;;1.33;;
7116;SDS011;3600;48.568;7.870;2022-07-04T07:10:54;2.97;;;1.90;;
7116;SDS011;3600;48.568;7.870;2022-07-04T07:13:22;2.50;;;1.77;;
7116;SDS011;3600;48.568;7.870;2022-07-04T07:15:49;3.05;;;2.05;;
7116;SDS011;3600;48.568;7.870;2022-07-04T07:18:15;3.80;;;1.52;;
7116;SDS011;3600;48.568;7.870;2022-07-04T07:20:42;1.83;;;1.70;;
7116;SDS011;3600;48.568;7.870;2022-07-04T07:23:09;3.75;;;1.80;;
7116;SDS011;3600;48.568;7.870;2022-07-04T07:25:36;2.33;;;1.40;;
7116;SDS011;3600;48.568;7.870;2022-07-04T07:28:03;2.40;;;1.60;;
7116;SDS011;3600;48.568;7.870;2022-07-04T07:30:30;2.15;;;1.35;;
7116;SDS011;3600;48.568;7.870;2022-07-04T07:32:57;2.67;;;1.95;;
7116;SDS011;3600;48.568;7.870;2022-07-04T07:35:23;1.75;;;1.52;;
7116;SDS011;3600;48.568;7.870;2022-07-04T07:37:50;1.88;;;1.55;;
7116;SDS011;3600;48.568;7.870;2022-07-04T07:40:17;4.57;;;1.88;;
7116;SDS011;3600;48.568;7.870;2022-07-04T07:42:44;2.13;;;1.25;;
7116;SDS011;3600;48.568;7.870;2022-07-04T07:45:10;2.85;;;1.42;;
7116;SDS011;3600;48.568;7.870;2022-07-04T07:47:37;4.78;;;1.73;;
7116;SDS011;3600;48.568;7.870;2022-07-04T07:50:04;1.45;;;1.35;;
7116;SDS011;3600;48.568;7.870;2022-07-04T07:52:32;4.90;;;1.95;;
7116;SDS011;3600;48.568;7.870;2022-07-04T07:54:59;1.58;;;1.48;;
7116;SDS011;3600;48.568;7.870;2022-07-04T07:57:27;1.60;;;1.50;;
7116;SDS011;3600;48.568;7.870;2022-07-04T07:59:54;2.00;;;1.80;;
7116;SDS011;3600;48.568;7.870;2022-07-04T08:02:22;4.43;;;1.60;;
7116;SDS011;3600;48.568;7.870;2022-07-04T08:05:08;4.72;;;1.80;;
7116;SDS011;3600;48.568;7.870;2022-07-04T08:07:35;1.65;;;1.55;;
7116;SDS011;3600;48.568;7.870;2022-07-04T08:10:03;4.32;;;1.40;;
7116;SDS011;3600;48.568;7.870;2022-07-04T08:12:30;3.95;;;1.80;;
7116;SDS011;3600;48.568;7.870;2022-07-04T08:14:57;1.73;;;1.50;;
7116;SDS011;3600;48.568;7.870;2022-07-04T08:17:31;2.75;;;1.60;;
7116;SDS011;3600;48.568;7.870;2022-07-04T08:19:58;2.00;;;1.50;;
7116;SDS011;3600;48.568;7.870;2022-07-04T08:22:25;1.88;;;1.35;;
7116;SDS011;3600;48.568;7.870;2022-07-04T08:24:52;2.63;;;1.40;;
7116;SDS011;3600;48.568;7.870;2022-07-04T08:27:19;1.50;;;1.40;;
7116;SDS011;3600;48.568;7.870;2022-07-04T08:29:57;2.50;;;2.00;;
7116;SDS011;3600;48.568;7.870;2022-07-04T08:32:23;3.28;;;1.77;;
7116;SDS011;3600;48.568;7.870;2022-07-04T08:34:50;1.90;;;1.80;;
7116;SDS011;3600;48.568;7.870;2022-07-04T08:37:17;2.15;;;1.65;;
7116;SDS011;3600;48.568;7.870;2022-07-04T08:39:44;2.50;;;1.60;;
7116;SDS011;3600;48.568;7.870;2022-07-04T08:42:18;2.45;;;1.92;;
7116;SDS011;3600;48.568;7.870;2022-07-04T08:44:50;1.33;;;1.23;;
7116;SDS011;3600;48.568;7.870;2022-07-04T08:47:18;2.13;;;1.63;;
7116;SDS011;3600;48.568;7.870;2022-07-04T08:49:52;2.15;;;1.55;;
7116;SDS011;3600;48.568;7.870;2022-07-04T08:52:41;2.33;;;1.52;;
7116;SDS011;3600;48.568;7.870;2022-07-04T08:55:10;2.17;;;1.77;;
7116;SDS011;3600;48.568;7.870;2022-07-04T08:57:57;1.95;;;1.52;;
7116;SDS011;3600;48.568;7.870;2022-07-04T09:00:43;1.60;;;1.45;;
7116;SDS011;3600;48.568;7.870;2022-07-04T09:03:10;1.88;;;1.77;;
7116;SDS011;3600;48.568;7.870;2022-07-04T09:05:37;2.92;;;1.85;;
7116;SDS011;3600;48.568;7.870;2022-07-04T09:08:04;6.72;;;1.80;;
7116;SDS011;3600;48.568;7.870;2022-07-04T09:10:31;1.90;;;1.40;;
7116;SDS011;3600;48.568;7.870;2022-07-04T09:13:00;2.63;;;1.50;;
7116;SDS011;3600;48.568;7.870;2022-07-04T09:15:38;2.55;;;1.30;;
7116;SDS011;3600;48.568;7.870;2022-07-04T09:18:06;3.00;;;1.27;;
7116;SDS011;3600;48.568;7.870;2022-07-04T09:20:44;3.42;;;1.65;;
7116;SDS011;3600;48.568;7.870;2022-07-04T09:23:19;2.70;;;1.38;;
7116;SDS011;3600;48.568;7.870;2022-07-04T09:25:47;1.88;;;1.45;;
7116;SDS011;3600;48.568;7.870;2022-07-04T09:28:35;2.75;;;1.70;;
7116;SDS011;3600;48.568;7.870;2022-07-04T09:31:02;1.60;;;1.50;;
7116;SDS011;3600;48.568;7.870;2022-07-04T09:33:44;2.35;;;1.40;;
7116;SDS011;3600;48.568;7.870;2022-07-04T09:36:17;1.73;;;1.33;;
7116;SDS011;3600;48.568;7.870;2022-07-04T09:38:46;1.95;;;1.42;;
7116;SDS011;3600;48.568;7.870;2022-07-04T09:41:35;1.98;;;1.30;;
7116;SDS011;3600;48.568;7.870;2022-07-04T09:44:18;2.88;;;1.60;;
7116;SDS011;3600;48.568;7.870;2022-07-04T09:46:45;1.60;;;1.50;;
7116;SDS011;3600;48.568;7.870;2022-07-04T09:49:13;2.42;;;1.65;;
7116;SDS011;3600;48.568;7.870;2022-07-04T09:51:43;2.80;;;1.63;;
7116;SDS011;3600;48.568;7.870;2022-07-04T09:54:19;2.75;;;1.40;;
7116;SDS011;3600;48.568;7.870;2022-07-04T09:56:53;3.65;;;1.98;;
7116;SDS011;3600;48.568;7.870;2022-07-04T09:59:22;1.52;;;1.42;;
7116;SDS011;3600;48.568;7.870;2022-07-04T10:01:50;3.08;;;2.05;;
7116;SDS011;3600;48.568;7.870;2022-07-04T10:04:18;4.18;;;1.77;;
7116;SDS011;3600;48.568;7.870;2022-07-04T10:06:47;2.08;;;1.73;;
7116;SDS011;3600;48.568;7.870;2022-07-04T10:09:17;1.70;;;1.60;;
7116;SDS011;3600;48.568;7.870;2022-07-04T10:11:45;2.25;;;1.27;;
7116;SDS011;3600;48.568;7.870;2022-07-04T10:14:13;1.88;;;1.45;;
7116;SDS011;3600;48.568;7.870;2022-07-04T10:16:42;2.85;;;1.55;;
7116;SDS011;3600;48.568;7.870;2022-07-04T10:19:09;1.75;;;1.20;;
7116;SDS011;3600;48.568;7.870;2022-07-04T10:21:38;2.80;;;1.50;;
7116;SDS011;3600;48.568;7.870;2022-07-04T10:24:06;3.90;;;1.70;;
7116;SDS011;3600;48.568;7.870;2022-07-04T10:26:33;3.67;;;1.60;;
7116;SDS011;3600;48.568;7.870;2022-07-04T10:29:00;1.77;;;1.60;;
7116;SDS011;3600;48.568;7.870;2022-07-04T10:31:28;2.40;;;1.50;;
7116;SDS011;3600;48.568;7.870;2022-07-04T10:33:57;5.50;;;1.77;;
7116;SDS011;3600;48.568;7.870;2022-07-04T10:36:25;2.97;;;1.58;;
7116;SDS011;3600;48.568;7.870;2022-07-04T10:38:57;2.50;;;1.60;;
7116;SDS011;3600;48.568;7.870;2022-07-04T10:41:30;1.50;;;1.40;;
7116;SDS011;3600;48.568;7.870;2022-07-04T10:51:36;2.60;;;1.38;;
7116;SDS011;3600;48.568;7.870;2022-07-04T10:54:18;2.42;;;1.60;;
7116;SDS011;3600;48.568;7.870;2022-07-04T10:57:08;1.88;;;1.33;;
7116;SDS011;3600;48.568;7.870;2022-07-04T10:59:43;1.48;;;1.38;;
7116;SDS011;3600;48.568;7.870;2022-07-04T11:02:29;1.63;;;1.45;;
7116;SDS011;3600;48.568;7.870;2022-07-04T11:05:07;1.40;;;1.30;;
7116;SDS011;3600;48.568;7.870;2022-07-04T11:17:59;2.03;;;1.38;;
7116;SDS011;3600;48.568;7.870;2022-07-04T11:20:28;5.45;;;1.20;;
7116;SDS011;3600;48.568;7.870;2022-07-04T11:23:06;1.40;;;1.30;;
7116;SDS011;3600;48.568;7.870;2022-07-04T11:25:33;2.33;;;1.20;;
7116;SDS011;3600;48.568;7.870;2022-07-04T11:31:06;2.90;;;1.65;;
7116;SDS011;3600;48.568;7.870;2022-07-04T11:33:33;2.10;;;1.30;;
7116;SDS011;3600;48.568;7.870;2022-07-04T11:38:45;2.30;;;1.23;;
7116;SDS011;3600;48.568;7.870;2022-07-04T11:41:23;2.60;;;1.27;;
7116;SDS011;3600;48.568;7.870;2022-07-04T11:44:14;3.22;;;1.42;;
7116;SDS011;3600;48.568;7.870;2022-07-04T11:47:02;3.67;;;1.20;;
7116;SDS011;3600;48.568;7.870;2022-07-04T11:49:34;3.95;;;1.52;;
7116;SDS011;3600;48.568;7.870;2022-07-04T11:52:01;2.20;;;1.50;;
7116;SDS011;3600;48.568;7.870;2022-07-04T11:54:29;2.10;;;1.20;;
7116;SDS011;3600;48.568;7.870;2022-07-04T11:59:56;2.58;;;1.48;;
7116;SDS011;3600;48.568;7.870;2022-07-04T12:02:31;2.42;;;1.55;;
7116;SDS011;3600;48.568;7.870;2022-07-04T12:04:59;2.42;;;1.35;;
7116;SDS011;3600;48.568;7.870;2022-07-04T12:07:29;2.97;;;1.20;;
7116;SDS011;3600;48.568;7.870;2022-07-04T12:10:10;1.58;;;1.48;;
7116;SDS011;3600;48.568;7.870;2022-07-04T12:15:31;1.35;;;1.25;;
7116;SDS011;3600;48.568;7.870;2022-07-04T12:18:15;2.33;;;1.40;;
7116;SDS011;3600;48.568;7.870;2022-07-04T12:20:49;1.58;;;1.33;;
7116;SDS011;3600;48.568;7.870;2022-07-04T12:23:21;3.30;;;1.55;;
7116;SDS011;3600;48.568;7.870;2022-07-04T12:25:49;2.20;;;1.48;;
7116;SDS011;3600;48.568;7.870;2022-07-04T12:28:18;1.50;;;1.30;;
7116;SDS011;3600;48.568;7.870;2022-07-04T12:30:48;2.50;;;1.33;;
7116;SDS011;3600;48.568;7.870;2022-07-04T12:33:24;2.45;;;1.40;;
7116;SDS011;3600;48.568;7.870;2022-07-04T12:35:59;1.70;;;1.60;;
7116;SDS011;3600;48.568;7.870;2022-07-04T12:40:57;2.70;;;1.60;;
7116;SDS011;3600;48.568;7.870;2022-07-04T12:46:09;1.73;;;1.25;;
7116;SDS011;3600;48.568;7.870;2022-07-04T12:48:38;1.90;;;1.30;;
7116;SDS011;3600;48.568;7.870;2022-07-04T12:53:36;1.52;;;1.42;;
7116;SDS011;3600;48.568;7.870;2022-07-04T12:56:04;1.42;;;1.20;;
7116;SDS011;3600;48.568;7.870;2022-07-04T12:58:31;2.85;;;1.20;;
7116;SDS011;3600;48.568;7.870;2022-07-04T13:00:58;2.72;;;1.45;;
7116;SDS011;3600;48.568;7.870;2022-07-04T13:03:25;1.30;;;1.20;;
7116;SDS011;3600;48.568;7.870;2022-07-04T13:05:52;2.13;;;1.42;;
7116;SDS011;3600;48.568;7.870;2022-07-04T13:08:19;1.17;;;1.05;;
7116;SDS011;3600;48.568;7.870;2022-07-04T13:10:46;2.33;;;1.40;;
7116;SDS011;3600;48.568;7.870;2022-07-04T13:13:13;1.27;;;1.17;;
7116;SDS011;3600;48.568;7.870;2022-07-04T13:15:39;2.25;;;1.38;;
7116;SDS011;3600;48.568;7.870;2022-07-04T13:18:06;2.90;;;1.50;;
7116;SDS011;3600;48.568;7.870;2022-07-04T13:20:33;2.03;;;1.20;;
7116;SDS011;3600;48.568;7.870;2022-07-04T13:23:00;1.38;;;1.27;;
7116;SDS011;3600;48.568;7.870;2022-07-04T13:25:26;1.92;;;1.27;;
7116;SDS011;3600;48.568;7.870;2022-07-04T13:27:53;1.10;;;1.10;;
7116;SDS011;3600;48.568;7.870;2022-07-04T13:30:20;1.58;;;1.20;;
7116;SDS011;3600;48.568;7.870;2022-07-04T13:32:47;1.77;;;1.27;;
7116;SDS011;3600;48.568;7.870;2022-07-04T13:35:14;1.48;;;1.00;;
7116;SDS011;3600;48.568;7.870;2022-07-04T13:37:40;1.27;;;1.00;;
7116;SDS011;3600;48.568;7.870;2022-07-04T13:40:08;2.58;;;1.48;;
7116;SDS011;3600;48.568;7.870;2022-07-04T13:42:36;1.15;;;1.13;;
7116;SDS011;3600;48.568;7.870;2022-07-04T13:45:21;1.50;;;1.40;;
7116;SDS011;3600;48.568;7.870;2022-07-04T13:47:50;1.35;;;1.15;;
7116;SDS011;3600;48.568;7.870;2022-07-04T13:50:18;2.22;;;1.00;;
7116;SDS011;3600;48.568;7.870;2022-07-04T13:52:49;1.50;;;1.02;;
7116;SDS011;3600;48.568;7.870;2022-07-04T13:55:16;1.83;;;1.10;;
7116;SDS011;3600;48.568;7.870;2022-07-04T13:57:43;1.27;;;0.98;;
7116;SDS011;3600;48.568;7.870;2022-07-04T14:00:10;1.00;;;1.00;;
7116;SDS011;3600;48.568;7.870;2022-07-04T14:02:37;2.35;;;1.30;;
7116;SDS011;3600;48.568;7.870;2022-07-04T14:05:04;2.28;;;1.10;;
7116;SDS011;3600;48.568;7.870;2022-07-04T14:07:31;1.05;;;0.93;;
7116;SDS011;3600;48.568;7.870;2022-07-04T14:10:01;1.40;;;1.30;;
7116;SDS011;3600;48.568;7.870;2022-07-04T14:12:28;1.13;;;1.10;;
7116;SDS011;3600;48.568;7.870;2022-07-04T14:14:55;1.30;;;0.93;;
7116;SDS011;3600;48.568;7.870;2022-07-04T14:17:22;1.17;;;1.17;;
7116;SDS011;3600;48.568;7.870;2022-07-04T14:20:01;1.30;;;1.17;;
7116;SDS011;3600;48.568;7.870;2022-07-04T14:22:30;1.20;;;1.00;;
7116;SDS011;3600;48.568;7.870;2022-07-04T14:24:56;3.00;;;1.00;;
7116;SDS011;3600;48.568;7.870;2022-07-04T14:27:23;2.17;;;0.80;;
7116;SDS011;3600;48.568;7.870;2022-07-04T14:29:50;1.67;;;1.08;;
7116;SDS011;3600;48.568;7.870;2022-07-04T14:32:17;0.93;;;0.70;;
7116;SDS011;3600;48.568;7.870;2022-07-04T14:34:45;4.03;;;1.13;;
7116;SDS011;3600;48.568;7.870;2022-07-04T14:37:12;1.00;;;0.90;;
7116;SDS011;3600;48.568;7.870;2022-07-04T14:39:38;1.30;;;0.73;;
7116;SDS011;3600;48.568;7.870;2022-07-04T14:42:05;1.33;;;0.93;;
7116;SDS011;3600;48.568;7.870;2022-07-04T14:44:32;1.80;;;0.90;;
7116;SDS011;3600;48.568;7.870;2022-07-04T14:47:04;0.80;;;0.80;;
7116;SDS011;3600;48.568;7.870;2022-07-04T14:49:37;2.28;;;0.80;;
7116;SDS011;3600;48.568;7.870;2022-07-04T14:52:04;1.00;;;0.90;;
7116;SDS011;3600;48.568;7.870;2022-07-04T14:54:31;2.05;;;1.10;;
7116;SDS011;3600;48.568;7.870;2022-07-04T14:56:57;1.73;;;0.70;;
7116;SDS011;3600;48.568;7.870;2022-07-04T14:59:24;0.65;;;0.60;;
7116;SDS011;3600;48.568;7.870;2022-07-04T15:01:51;1.13;;;0.80;;
7116;SDS011;3600;48.568;7.870;2022-07-04T15:04:19;0.82;;;0.80;;
7116;SDS011;3600;48.568;7.870;2022-07-04T15:06:46;1.08;;;0.98;;
7116;SDS011;3600;48.568;7.870;2022-07-04T15:09:13;0.65;;;0.63;;
7116;SDS011;3600;48.568;7.870;2022-07-04T15:11:40;1.17;;;0.73;;
7116;SDS011;3600;48.568;7.870;2022-07-04T15:14:09;1.55;;;0.80;;
7116;SDS011;3600;48.568;7.870;2022-07-04T15:16:36;0.98;;;0.75;;
7116;SDS011;3600;48.568;7.870;2022-07-04T15:19:03;0.93;;;0.85;;
7116;SDS011;3600;48.568;7.870;2022-07-04T15:21:30;1.65;;;1.00;;
7116;SDS011;3600;48.568;7.870;2022-07-04T15:24:15;1.08;;;0.90;;
7116;SDS011;3600;48.568;7.870;2022-07-04T15:26:47;1.05;;;1.00;;
7116;SDS011;3600;48.568;7.870;2022-07-04T15:29:16;1.65;;;0.85;;
7116;SDS011;3600;48.568;7.870;2022-07-04T15:31:46;1.02;;;0.90;;
7116;SDS011;3600;48.568;7.870;2022-07-04T15:34:14;1.63;;;0.88;;
7116;SDS011;3600;48.568;7.870;2022-07-04T15:36:42;0.93;;;0.75;;
7116;SDS011;3600;48.568;7.870;2022-07-04T15:39:10;2.35;;;0.70;;
7116;SDS011;3600;48.568;7.870;2022-07-04T15:41:38;1.33;;;0.88;;
7116;SDS011;3600;48.568;7.870;2022-07-04T15:44:05;1.30;;;0.60;;
7116;SDS011;3600;48.568;7.870;2022-07-04T15:46:33;2.20;;;1.20;;
7116;SDS011;3600;48.568;7.870;2022-07-04T15:49:03;0.95;;;0.95;;
7116;SDS011;3600;48.568;7.870;2022-07-04T15:51:44;1.02;;;0.90;;
7116;SDS011;3600;48.568;7.870;2022-07-04T15:54:11;1.90;;;1.05;;
7116;SDS011;3600;48.568;7.870;2022-07-04T15:56:38;0.93;;;0.80;;
7116;SDS011;3600;48.568;7.870;2022-07-04T15:59:05;1.35;;;0.73;;
7116;SDS011;3600;48.568;7.870;2022-07-04T16:01:32;0.57;;;0.50;;